sensor_id;sensor_type;location;lat;lon;timestamp;temperature;humidity
11991;DHT22;6055;52.522;13.446;2023-04-12T00:00:31;6.80;99.90
11991;DHT22;6055;52.522;13.446;2023-04-12T00:02:57;6.70;99.90
11991;DHT22;6055;52.522;13.446;2023-04-12T00:05:24;6.70;99.90
11991;DHT22;6055;52.522;13.446;2023-04-12T00:07:52;6.70;99.90
11991;DHT22;6055;52.522;13.446;2023-04-12T00:10:17;6.70;99.90
11991;DHT22;6055;52.522;13.446;2023-04-12T00:12:43;6.70;99.90
11991;DHT22;6055;52.522;13.446;2023-04-12T00:15:09;6.70;99.90
11991;DHT22;6055;52.522;13.446;2023-04-12T00:17:35;6.70;99.90
11991;DHT22;6055;52.522;13.446;2023-04-12T00:20:01;6.70;99.90
11991;DHT22;6055;52.522;13.446;2023-04-12T00:22:29;6.60;99.90
11991;DHT22;6055;52.522;13.446;2023-04-12T00:24:55;6.60;99.90
11991;DHT22;6055;52.522;13.446;2023-04-12T00:27:20;6.60;99.90
11991;DHT22;6055;52.522;13.446;2023-04-12T00:29:46;6.50;99.90
11991;DHT22;6055;52.522;13.446;2023-04-12T00:32:11;6.50;99.90
11991;DHT22;6055;52.522;13.446;2023-04-12T00:34:36;6.60;99.90
11991;DHT22;6055;52.522;13.446;2023-04-12T00:37:02;6.50;99.90
11991;DHT22;6055;52.522;13.446;2023-04-12T00:39:27;6.40;99.90
11991;DHT22;6055;52.522;13.446;2023-04-12T00:41:53;6.50;99.90
11991;DHT22;6055;52.522;13.446;2023-04-12T00:44:21;6.50;99.90
11991;DHT22;6055;52.522;13.446;2023-04-12T00:46:47;6.50;99.90
11991;DHT22;6055;52.522;13.446;2023-04-12T00:49:13;6.40;99.90
11991;DHT22;6055;52.522;13.446;2023-04-12T00:51:40;6.40;99.90
11991;DHT22;6055;52.522;13.446;2023-04-12T00:54:06;6.40;99.90
11991;DHT22;6055;52.522;13.446;2023-04-12T00:56:32;6.40;99.90
11991;DHT22;6055;52.522;13.446;2023-04-12T00:58:58;6.40;99.90
11991;DHT22;6055;52.522;13.446;2023-04-12T01:01:24;6.40;99.90
11991;DHT22;6055;52.522;13.446;2023-04-12T01:03:51;6.40;99.90
11991;DHT22;6055;52.522;13.446;2023-04-12T01:06:53;6.50;99.90
11991;DHT22;6055;52.522;13.446;2023-04-12T01:09:44;6.40;99.90
11991;DHT22;6055;52.522;13.446;2023-04-12T01:15:24;6.40;99.90
11991;DHT22;6055;52.522;13.446;2023-04-12T01:18:13;6.40;99.90
11991;DHT22;6055;52.522;13.446;2023-04-12T01:20:48;6.30;99.90
11991;DHT22;6055;52.522;13.446;2023-04-12T01:26:38;6.30;99.90
11991;DHT22;6055;52.522;13.446;2023-04-12T01:29:08;6.30;99.90
11991;DHT22;6055;52.522;13.446;2023-04-12T01:31:35;6.30;99.90
11991;DHT22;6055;52.522;13.446;2023-04-12T01:34:02;6.30;99.90
11991;DHT22;6055;52.522;13.446;2023-04-12T01:36:29;6.30;99.90
11991;DHT22;6055;52.522;13.446;2023-04-12T01:38:55;6.20;99.90
11991;DHT22;6055;52.522;13.446;2023-04-12T01:41:21;6.30;99.90
11991;DHT22;6055;52.522;13.446;2023-04-12T01:43:47;6.20;99.90
11991;DHT22;6055;52.522;13.446;2023-04-12T01:46:14;6.20;99.90
11991;DHT22;6055;52.522;13.446;2023-04-12T01:48:47;6.20;99.90
11991;DHT22;6055;52.522;13.446;2023-04-12T01:51:38;6.20;99.90
11991;DHT22;6055;52.522;13.446;2023-04-12T01:54:12;6.10;99.90
11991;DHT22;6055;52.522;13.446;2023-04-12T01:56:40;6.10;99.90
11991;DHT22;6055;52.522;13.446;2023-04-12T01:59:06;6.00;99.90
11991;DHT22;6055;52.522;13.446;2023-04-12T02:01:33;6.00;99.90
11991;DHT22;6055;52.522;13.446;2023-04-12T02:03:59;6.00;99.90
11991;DHT22;6055;52.522;13.446;2023-04-12T02:06:26;5.90;99.90
11991;DHT22;6055;52.522;13.446;2023-04-12T02:09:00;5.90;99.90
11991;DHT22;6055;52.522;13.446;2023-04-12T02:11:26;5.90;99.90
11991;DHT22;6055;52.522;13.446;2023-04-12T02:13:52;5.80;99.90
11991;DHT22;6055;52.522;13.446;2023-04-12T02:16:17;5.80;99.90
11991;DHT22;6055;52.522;13.446;2023-04-12T02:18:45;5.80;99.90
11991;DHT22;6055;52.522;13.446;2023-04-12T02:21:10;5.70;99.90
11991;DHT22;6055;52.522;13.446;2023-04-12T02:23:36;5.80;99.90
11991;DHT22;6055;52.522;13.446;2023-04-12T02:26:01;5.80;99.90
11991;DHT22;6055;52.522;13.446;2023-04-12T02:28:27;5.70;99.90
11991;DHT22;6055;52.522;13.446;2023-04-12T02:30:53;5.70;99.90
11991;DHT22;6055;52.522;13.446;2023-04-12T02:33:18;5.70;99.90
11991;DHT22;6055;52.522;13.446;2023-04-12T02:35:50;5.70;99.90
11991;DHT22;6055;52.522;13.446;2023-04-12T02:38:15;5.70;99.90
11991;DHT22;6055;52.522;13.446;2023-04-12T02:40:41;5.70;99.90
11991;DHT22;6055;52.522;13.446;2023-04-12T02:43:08;5.60;99.90
11991;DHT22;6055;52.522;13.446;2023-04-12T02:45:34;5.60;99.90
11991;DHT22;6055;52.522;13.446;2023-04-12T02:47:59;5.50;99.90
11991;DHT22;6055;52.522;13.446;2023-04-12T02:50:25;5.60;99.90
11991;DHT22;6055;52.522;13.446;2023-04-12T02:52:50;5.50;99.90
11991;DHT22;6055;52.522;13.446;2023-04-12T02:55:16;5.50;99.90
11991;DHT22;6055;52.522;13.446;2023-04-12T02:57:45;5.50;99.90
11991;DHT22;6055;52.522;13.446;2023-04-12T03:00:13;5.50;99.90
11991;DHT22;6055;52.522;13.446;2023-04-12T03:02:39;5.50;99.90
11991;DHT22;6055;52.522;13.446;2023-04-12T03:05:05;5.40;99.90
11991;DHT22;6055;52.522;13.446;2023-04-12T03:07:32;5.50;99.90
11991;DHT22;6055;52.522;13.446;2023-04-12T03:09:57;5.40;99.90
11991;DHT22;6055;52.522;13.446;2023-04-12T03:12:23;5.40;99.90
11991;DHT22;6055;52.522;13.446;2023-04-12T03:14:48;5.40;99.90
11991;DHT22;6055;52.522;13.446;2023-04-12T03:17:14;5.40;99.90
11991;DHT22;6055;52.522;13.446;2023-04-12T03:19:40;5.40;99.90
11991;DHT22;6055;52.522;13.446;2023-04-12T03:22:05;5.40;99.90
11991;DHT22;6055;52.522;13.446;2023-04-12T03:24:31;5.40;99.90
11991;DHT22;6055;52.522;13.446;2023-04-12T03:27:03;5.40;99.90
11991;DHT22;6055;52.522;13.446;2023-04-12T03:29:30;5.30;99.90
11991;DHT22;6055;52.522;13.446;2023-04-12T03:31:56;5.30;99.90
11991;DHT22;6055;52.522;13.446;2023-04-12T03:34:26;5.30;99.90
11991;DHT22;6055;52.522;13.446;2023-04-12T03:36:56;5.30;99.90
11991;DHT22;6055;52.522;13.446;2023-04-12T03:39:22;5.20;99.90
11991;DHT22;6055;52.522;13.446;2023-04-12T03:41:48;5.20;99.90
11991;DHT22;6055;52.522;13.446;2023-04-12T03:44:13;5.20;99.90
11991;DHT22;6055;52.522;13.446;2023-04-12T03:46:39;5.20;99.90
11991;DHT22;6055;52.522;13.446;2023-04-12T03:49:04;5.20;99.90
11991;DHT22;6055;52.522;13.446;2023-04-12T03:51:30;5.20;99.90
11991;DHT22;6055;52.522;13.446;2023-04-12T03:53:55;5.20;99.90
11991;DHT22;6055;52.522;13.446;2023-04-12T03:56:21;5.20;99.90
11991;DHT22;6055;52.522;13.446;2023-04-12T03:58:48;5.20;99.90
11991;DHT22;6055;52.522;13.446;2023-04-12T04:01:14;5.20;99.90
11991;DHT22;6055;52.522;13.446;2023-04-12T04:03:42;5.20;99.90
11991;DHT22;6055;52.522;13.446;2023-04-12T04:06:09;5.20;99.90
11991;DHT22;6055;52.522;13.446;2023-04-12T04:08:36;5.20;99.90
11991;DHT22;6055;52.522;13.446;2023-04-12T04:11:02;5.10;99.90
11991;DHT22;6055;52.522;13.446;2023-04-12T04:13:27;5.10;99.90
11991;DHT22;6055;52.522;13.446;2023-04-12T04:16:02;5.10;99.90
11991;DHT22;6055;52.522;13.446;2023-04-12T04:18:29;5.10;99.90
11991;DHT22;6055;52.522;13.446;2023-04-12T04:20:54;5.00;99.90
11991;DHT22;6055;52.522;13.446;2023-04-12T04:23:20;5.00;99.90
11991;DHT22;6055;52.522;13.446;2023-04-12T04:25:47;5.00;99.90
11991;DHT22;6055;52.522;13.446;2023-04-12T04:28:13;5.00;99.90
11991;DHT22;6055;52.522;13.446;2023-04-12T04:30:40;4.90;99.90
11991;DHT22;6055;52.522;13.446;2023-04-12T04:33:05;4.90;99.90
11991;DHT22;6055;52.522;13.446;2023-04-12T04:35:32;4.90;99.90
11991;DHT22;6055;52.522;13.446;2023-04-12T04:37:58;4.90;99.90
11991;DHT22;6055;52.522;13.446;2023-04-12T04:40:24;4.90;99.90
11991;DHT22;6055;52.522;13.446;2023-04-12T04:42:50;4.90;99.90
11991;DHT22;6055;52.522;13.446;2023-04-12T04:45:23;5.00;99.90
11991;DHT22;6055;52.522;13.446;2023-04-12T04:47:52;4.90;99.90
11991;DHT22;6055;52.522;13.446;2023-04-12T04:50:19;4.90;99.90
11991;DHT22;6055;52.522;13.446;2023-04-12T04:52:45;4.90;99.90
11991;DHT22;6055;52.522;13.446;2023-04-12T04:55:13;5.00;99.90
11991;DHT22;6055;52.522;13.446;2023-04-12T04:57:39;4.90;99.90
11991;DHT22;6055;52.522;13.446;2023-04-12T05:00:05;4.90;99.90
11991;DHT22;6055;52.522;13.446;2023-04-12T05:02:36;4.90;99.90
11991;DHT22;6055;52.522;13.446;2023-04-12T05:05:05;5.00;99.90
11991;DHT22;6055;52.522;13.446;2023-04-12T05:07:31;5.00;99.90
11991;DHT22;6055;52.522;13.446;2023-04-12T05:09:56;5.00;99.90
11991;DHT22;6055;52.522;13.446;2023-04-12T05:12:21;5.00;99.90
11991;DHT22;6055;52.522;13.446;2023-04-12T05:14:47;5.10;99.90
11991;DHT22;6055;52.522;13.446;2023-04-12T05:17:12;5.10;99.90
11991;DHT22;6055;52.522;13.446;2023-04-12T05:19:39;5.10;99.90
11991;DHT22;6055;52.522;13.446;2023-04-12T05:22:05;5.10;99.90
11991;DHT22;6055;52.522;13.446;2023-04-12T05:24:31;5.20;99.90
11991;DHT22;6055;52.522;13.446;2023-04-12T05:26:56;5.20;99.90
11991;DHT22;6055;52.522;13.446;2023-04-12T05:29:22;5.20;99.90
11991;DHT22;6055;52.522;13.446;2023-04-12T05:31:47;5.30;99.90
11991;DHT22;6055;52.522;13.446;2023-04-12T05:34:13;5.30;99.90
11991;DHT22;6055;52.522;13.446;2023-04-12T05:36:38;5.30;99.90
11991;DHT22;6055;52.522;13.446;2023-04-12T05:39:03;5.30;99.90
11991;DHT22;6055;52.522;13.446;2023-04-12T05:41:31;5.30;99.90
11991;DHT22;6055;52.522;13.446;2023-04-12T05:43:57;5.30;99.90
11991;DHT22;6055;52.522;13.446;2023-04-12T05:46:22;5.30;99.90
11991;DHT22;6055;52.522;13.446;2023-04-12T05:48:47;5.40;99.90
11991;DHT22;6055;52.522;13.446;2023-04-12T05:51:13;5.40;99.90
11991;DHT22;6055;52.522;13.446;2023-04-12T05:53:38;5.50;99.90
11991;DHT22;6055;52.522;13.446;2023-04-12T05:56:04;5.50;99.90
11991;DHT22;6055;52.522;13.446;2023-04-12T05:58:30;5.50;99.90
11991;DHT22;6055;52.522;13.446;2023-04-12T06:00:56;5.60;99.90
11991;DHT22;6055;52.522;13.446;2023-04-12T06:03:21;5.60;99.90
11991;DHT22;6055;52.522;13.446;2023-04-12T06:05:51;5.60;99.90
11991;DHT22;6055;52.522;13.446;2023-04-12T06:08:17;5.70;99.90
11991;DHT22;6055;52.522;13.446;2023-04-12T06:10:42;5.70;99.90
11991;DHT22;6055;52.522;13.446;2023-04-12T06:13:08;5.70;99.90
11991;DHT22;6055;52.522;13.446;2023-04-12T06:15:33;5.70;99.90
11991;DHT22;6055;52.522;13.446;2023-04-12T06:18:00;5.80;99.90
11991;DHT22;6055;52.522;13.446;2023-04-12T06:20:26;5.80;99.90
11991;DHT22;6055;52.522;13.446;2023-04-12T06:22:51;5.90;99.90
11991;DHT22;6055;52.522;13.446;2023-04-12T06:25:17;5.90;99.90
11991;DHT22;6055;52.522;13.446;2023-04-12T06:27:42;5.90;99.90
11991;DHT22;6055;52.522;13.446;2023-04-12T06:30:08;6.00;99.90
11991;DHT22;6055;52.522;13.446;2023-04-12T06:32:34;6.10;99.90
11991;DHT22;6055;52.522;13.446;2023-04-12T06:34:59;6.10;99.90
11991;DHT22;6055;52.522;13.446;2023-04-12T06:37:25;6.10;99.90
11991;DHT22;6055;52.522;13.446;2023-04-12T06:39:50;6.20;99.90
11991;DHT22;6055;52.522;13.446;2023-04-12T06:42:16;6.20;99.90
11991;DHT22;6055;52.522;13.446;2023-04-12T06:44:42;6.30;99.90
11991;DHT22;6055;52.522;13.446;2023-04-12T06:47:07;6.40;99.90
11991;DHT22;6055;52.522;13.446;2023-04-12T06:49:33;6.40;99.90
11991;DHT22;6055;52.522;13.446;2023-04-12T06:51:59;6.40;99.90
11991;DHT22;6055;52.522;13.446;2023-04-12T06:54:24;6.40;99.90
11991;DHT22;6055;52.522;13.446;2023-04-12T06:56:50;6.50;99.90
11991;DHT22;6055;52.522;13.446;2023-04-12T06:59:15;6.50;99.90
11991;DHT22;6055;52.522;13.446;2023-04-12T07:01:41;6.60;99.90
11991;DHT22;6055;52.522;13.446;2023-04-12T07:04:07;6.60;99.90
11991;DHT22;6055;52.522;13.446;2023-04-12T07:06:32;6.70;99.90
11991;DHT22;6055;52.522;13.446;2023-04-12T07:08:58;6.80;99.90
11991;DHT22;6055;52.522;13.446;2023-04-12T07:11:24;6.90;99.90
11991;DHT22;6055;52.522;13.446;2023-04-12T07:13:49;6.90;99.90
11991;DHT22;6055;52.522;13.446;2023-04-12T07:16:16;7.00;99.90
11991;DHT22;6055;52.522;13.446;2023-04-12T07:18:41;7.00;99.90
11991;DHT22;6055;52.522;13.446;2023-04-12T07:21:07;7.10;99.90
11991;DHT22;6055;52.522;13.446;2023-04-12T07:23:32;7.20;99.90
11991;DHT22;6055;52.522;13.446;2023-04-12T07:25:59;7.20;99.90
11991;DHT22;6055;52.522;13.446;2023-04-12T07:28:25;7.30;99.90
11991;DHT22;6055;52.522;13.446;2023-04-12T07:30:51;7.40;99.90
11991;DHT22;6055;52.522;13.446;2023-04-12T07:33:16;7.40;99.90
11991;DHT22;6055;52.522;13.446;2023-04-12T07:35:41;7.60;99.90
11991;DHT22;6055;52.522;13.446;2023-04-12T07:38:07;7.70;99.90
11991;DHT22;6055;52.522;13.446;2023-04-12T07:40:35;7.70;99.90
11991;DHT22;6055;52.522;13.446;2023-04-12T07:43:00;7.80;99.90
11991;DHT22;6055;52.522;13.446;2023-04-12T07:45:26;7.90;99.90
11991;DHT22;6055;52.522;13.446;2023-04-12T07:47:51;7.90;99.90
11991;DHT22;6055;52.522;13.446;2023-04-12T07:50:17;8.00;99.90
11991;DHT22;6055;52.522;13.446;2023-04-12T07:52:42;8.10;99.90
11991;DHT22;6055;52.522;13.446;2023-04-12T07:55:08;8.10;99.90
11991;DHT22;6055;52.522;13.446;2023-04-12T07:57:34;8.20;99.90
11991;DHT22;6055;52.522;13.446;2023-04-12T07:59:59;8.30;99.90
11991;DHT22;6055;52.522;13.446;2023-04-12T08:02:25;8.30;99.90
11991;DHT22;6055;52.522;13.446;2023-04-12T08:04:51;8.40;99.90
11991;DHT22;6055;52.522;13.446;2023-04-12T08:07:16;8.40;99.90
11991;DHT22;6055;52.522;13.446;2023-04-12T08:09:42;8.40;99.90
11991;DHT22;6055;52.522;13.446;2023-04-12T08:12:07;8.50;99.90
11991;DHT22;6055;52.522;13.446;2023-04-12T08:14:33;8.60;99.90
11991;DHT22;6055;52.522;13.446;2023-04-12T08:16:58;8.70;99.90
11991;DHT22;6055;52.522;13.446;2023-04-12T08:19:24;8.80;99.90
11991;DHT22;6055;52.522;13.446;2023-04-12T08:21:49;8.90;99.90
11991;DHT22;6055;52.522;13.446;2023-04-12T08:24:15;9.00;99.90
11991;DHT22;6055;52.522;13.446;2023-04-12T08:26:40;9.10;99.90
11991;DHT22;6055;52.522;13.446;2023-04-12T08:29:06;9.20;99.90
11991;DHT22;6055;52.522;13.446;2023-04-12T08:31:32;9.20;99.90
11991;DHT22;6055;52.522;13.446;2023-04-12T08:33:57;9.30;99.90
11991;DHT22;6055;52.522;13.446;2023-04-12T08:36:24;9.30;99.90
11991;DHT22;6055;52.522;13.446;2023-04-12T08:38:50;9.40;99.90
11991;DHT22;6055;52.522;13.446;2023-04-12T08:41:17;9.50;99.90
11991;DHT22;6055;52.522;13.446;2023-04-12T08:43:44;9.60;99.90
11991;DHT22;6055;52.522;13.446;2023-04-12T08:46:13;9.60;99.90
11991;DHT22;6055;52.522;13.446;2023-04-12T08:48:46;9.70;99.90
11991;DHT22;6055;52.522;13.446;2023-04-12T08:51:14;9.70;99.90
11991;DHT22;6055;52.522;13.446;2023-04-12T08:53:40;9.70;99.90
11991;DHT22;6055;52.522;13.446;2023-04-12T08:56:08;9.80;99.90
11991;DHT22;6055;52.522;13.446;2023-04-12T08:58:43;9.90;99.90
11991;DHT22;6055;52.522;13.446;2023-04-12T09:01:11;10.10;99.90
11991;DHT22;6055;52.522;13.446;2023-04-12T09:03:43;10.30;99.80
11991;DHT22;6055;52.522;13.446;2023-04-12T09:06:09;10.40;99.40
11991;DHT22;6055;52.522;13.446;2023-04-12T09:08:35;10.50;99.20
11991;DHT22;6055;52.522;13.446;2023-04-12T09:11:01;10.60;98.30
11991;DHT22;6055;52.522;13.446;2023-04-12T09:13:33;10.70;98.10
11991;DHT22;6055;52.522;13.446;2023-04-12T09:16:00;10.80;98.50
11991;DHT22;6055;52.522;13.446;2023-04-12T09:18:25;11.00;98.00
11991;DHT22;6055;52.522;13.446;2023-04-12T09:21:07;11.10;97.90
11991;DHT22;6055;52.522;13.446;2023-04-12T09:23:33;11.30;96.70
11991;DHT22;6055;52.522;13.446;2023-04-12T09:26:02;11.40;96.30
11991;DHT22;6055;52.522;13.446;2023-04-12T09:28:28;11.70;95.40
11991;DHT22;6055;52.522;13.446;2023-04-12T09:30:56;11.90;95.00
11991;DHT22;6055;52.522;13.446;2023-04-12T09:33:31;12.00;94.20
11991;DHT22;6055;52.522;13.446;2023-04-12T09:36:01;12.10;93.50
11991;DHT22;6055;52.522;13.446;2023-04-12T09:38:30;12.50;93.70
11991;DHT22;6055;52.522;13.446;2023-04-12T09:40:56;12.70;92.80
11991;DHT22;6055;52.522;13.446;2023-04-12T09:43:36;13.10;92.20
11991;DHT22;6055;52.522;13.446;2023-04-12T09:46:27;13.30;90.50
11991;DHT22;6055;52.522;13.446;2023-04-12T09:48:54;13.60;90.20
11991;DHT22;6055;52.522;13.446;2023-04-12T09:51:38;14.00;88.70
11991;DHT22;6055;52.522;13.446;2023-04-12T09:54:05;14.50;86.80
11991;DHT22;6055;52.522;13.446;2023-04-12T09:56:33;14.50;86.20
11991;DHT22;6055;52.522;13.446;2023-04-12T09:59:05;14.40;86.50
11991;DHT22;6055;52.522;13.446;2023-04-12T10:01:35;14.20;87.00
11991;DHT22;6055;52.522;13.446;2023-04-12T10:04:03;14.10;87.40
11991;DHT22;6055;52.522;13.446;2023-04-12T10:06:29;13.80;86.20
11991;DHT22;6055;52.522;13.446;2023-04-12T10:08:56;13.50;86.00
11991;DHT22;6055;52.522;13.446;2023-04-12T10:11:25;13.30;87.20
11991;DHT22;6055;52.522;13.446;2023-04-12T10:13:51;13.20;87.80
11991;DHT22;6055;52.522;13.446;2023-04-12T10:16:17;13.10;88.30
11991;DHT22;6055;52.522;13.446;2023-04-12T10:18:45;13.00;89.40
11991;DHT22;6055;52.522;13.446;2023-04-12T10:21:11;13.00;90.00
11991;DHT22;6055;52.522;13.446;2023-04-12T10:23:38;13.10;89.40
11991;DHT22;6055;52.522;13.446;2023-04-12T10:26:04;13.30;88.80
11991;DHT22;6055;52.522;13.446;2023-04-12T10:28:29;13.50;87.80
11991;DHT22;6055;52.522;13.446;2023-04-12T10:30:56;13.90;87.60
11991;DHT22;6055;52.522;13.446;2023-04-12T10:33:25;14.20;86.50
11991;DHT22;6055;52.522;13.446;2023-04-12T10:36:02;14.60;84.20
11991;DHT22;6055;52.522;13.446;2023-04-12T10:38:45;14.90;82.80
11991;DHT22;6055;52.522;13.446;2023-04-12T10:41:16;15.20;83.40
11991;DHT22;6055;52.522;13.446;2023-04-12T10:43:51;15.50;83.00
11991;DHT22;6055;52.522;13.446;2023-04-12T10:49:13;15.70;81.50
11991;DHT22;6055;52.522;13.446;2023-04-12T10:51:43;15.70;81.80
11991;DHT22;6055;52.522;13.446;2023-04-12T10:56:54;16.10;80.20
11991;DHT22;6055;52.522;13.446;2023-04-12T10:59:19;16.30;79.10
11991;DHT22;6055;52.522;13.446;2023-04-12T11:04:28;16.90;77.90
11991;DHT22;6055;52.522;13.446;2023-04-12T11:06:58;17.40;78.20
11991;DHT22;6055;52.522;13.446;2023-04-12T11:09:37;18.00;75.00
11991;DHT22;6055;52.522;13.446;2023-04-12T11:14:46;19.80;71.10
11991;DHT22;6055;52.522;13.446;2023-04-12T11:19:49;21.40;64.10
11991;DHT22;6055;52.522;13.446;2023-04-12T11:22:16;21.70;61.70
11991;DHT22;6055;52.522;13.446;2023-04-12T11:24:43;22.00;60.00
11991;DHT22;6055;52.522;13.446;2023-04-12T11:27:09;22.30;58.50
11991;DHT22;6055;52.522;13.446;2023-04-12T11:29:35;21.80;57.10
11991;DHT22;6055;52.522;13.446;2023-04-12T11:32:10;21.40;57.40
11991;DHT22;6055;52.522;13.446;2023-04-12T11:34:37;21.60;57.60
11991;DHT22;6055;52.522;13.446;2023-04-12T11:37:05;21.90;57.90
11991;DHT22;6055;52.522;13.446;2023-04-12T11:39:33;22.50;56.90
11991;DHT22;6055;52.522;13.446;2023-04-12T11:41:59;22.90;56.00
11991;DHT22;6055;52.522;13.446;2023-04-12T11:44:26;22.70;55.30
11991;DHT22;6055;52.522;13.446;2023-04-12T11:46:51;22.50;55.10
11991;DHT22;6055;52.522;13.446;2023-04-12T11:49:20;21.80;55.60
11991;DHT22;6055;52.522;13.446;2023-04-12T11:51:46;21.40;55.60
11991;DHT22;6055;52.522;13.446;2023-04-12T11:54:12;21.10;56.50
11991;DHT22;6055;52.522;13.446;2023-04-12T11:56:38;21.60;54.60
11991;DHT22;6055;52.522;13.446;2023-04-12T11:59:04;22.20;55.30
11991;DHT22;6055;52.522;13.446;2023-04-12T12:01:31;22.20;53.20
11991;DHT22;6055;52.522;13.446;2023-04-12T12:03:58;21.70;53.50
11991;DHT22;6055;52.522;13.446;2023-04-12T12:06:24;21.50;55.30
11991;DHT22;6055;52.522;13.446;2023-04-12T12:08:51;21.30;54.70
11991;DHT22;6055;52.522;13.446;2023-04-12T12:11:19;20.90;54.00
11991;DHT22;6055;52.522;13.446;2023-04-12T12:13:46;20.50;54.00
11991;DHT22;6055;52.522;13.446;2023-04-12T12:16:11;19.90;55.70
11991;DHT22;6055;52.522;13.446;2023-04-12T12:18:44;19.40;55.60
11991;DHT22;6055;52.522;13.446;2023-04-12T12:21:11;18.80;56.50
11991;DHT22;6055;52.522;13.446;2023-04-12T12:23:37;18.30;56.60
11991;DHT22;6055;52.522;13.446;2023-04-12T12:26:03;17.90;58.30
11991;DHT22;6055;52.522;13.446;2023-04-12T12:28:35;17.60;57.40
11991;DHT22;6055;52.522;13.446;2023-04-12T12:31:10;17.30;58.60
11991;DHT22;6055;52.522;13.446;2023-04-12T12:33:40;17.20;58.70
11991;DHT22;6055;52.522;13.446;2023-04-12T12:36:06;17.20;59.20
11991;DHT22;6055;52.522;13.446;2023-04-12T12:38:35;17.20;59.70
11991;DHT22;6055;52.522;13.446;2023-04-12T12:41:17;17.30;58.80
11991;DHT22;6055;52.522;13.446;2023-04-12T12:43:47;17.60;59.30
11991;DHT22;6055;52.522;13.446;2023-04-12T12:46:13;17.80;59.60
11991;DHT22;6055;52.522;13.446;2023-04-12T12:48:43;18.10;59.50
11991;DHT22;6055;52.522;13.446;2023-04-12T12:51:09;18.10;59.50
11991;DHT22;6055;52.522;13.446;2023-04-12T12:53:35;18.10;59.10
11991;DHT22;6055;52.522;13.446;2023-04-12T12:56:01;17.90;59.80
11991;DHT22;6055;52.522;13.446;2023-04-12T12:58:27;17.80;59.70
11991;DHT22;6055;52.522;13.446;2023-04-12T13:00:53;17.70;59.50
11991;DHT22;6055;52.522;13.446;2023-04-12T13:03:19;17.50;59.60
11991;DHT22;6055;52.522;13.446;2023-04-12T13:05:46;17.20;59.70
11991;DHT22;6055;52.522;13.446;2023-04-12T13:08:12;17.10;60.40
11991;DHT22;6055;52.522;13.446;2023-04-12T13:10:37;17.00;59.70
11991;DHT22;6055;52.522;13.446;2023-04-12T13:13:03;16.90;60.00
11991;DHT22;6055;52.522;13.446;2023-04-12T13:15:28;16.80;59.20
11991;DHT22;6055;52.522;13.446;2023-04-12T13:17:54;16.80;59.80
11991;DHT22;6055;52.522;13.446;2023-04-12T13:20:21;16.90;59.80
11991;DHT22;6055;52.522;13.446;2023-04-12T13:22:46;17.10;59.60
11991;DHT22;6055;52.522;13.446;2023-04-12T13:25:12;17.30;60.10
11991;DHT22;6055;52.522;13.446;2023-04-12T13:27:38;17.50;59.70
11991;DHT22;6055;52.522;13.446;2023-04-12T13:30:04;17.80;59.80
11991;DHT22;6055;52.522;13.446;2023-04-12T13:32:29;18.10;60.10
11991;DHT22;6055;52.522;13.446;2023-04-12T13:34:55;18.40;60.10
11991;DHT22;6055;52.522;13.446;2023-04-12T13:37:20;18.40;59.00
11991;DHT22;6055;52.522;13.446;2023-04-12T13:39:46;18.20;58.50
11991;DHT22;6055;52.522;13.446;2023-04-12T13:42:11;17.70;58.90
11991;DHT22;6055;52.522;13.446;2023-04-12T13:44:37;17.30;59.70
11991;DHT22;6055;52.522;13.446;2023-04-12T13:47:03;17.30;61.00
11991;DHT22;6055;52.522;13.446;2023-04-12T13:49:29;17.50;60.00
11991;DHT22;6055;52.522;13.446;2023-04-12T13:51:55;17.60;59.70
11991;DHT22;6055;52.522;13.446;2023-04-12T13:54:21;17.60;60.00
11991;DHT22;6055;52.522;13.446;2023-04-12T13:56:46;17.60;60.00
11991;DHT22;6055;52.522;13.446;2023-04-12T13:59:12;17.40;60.70
11991;DHT22;6055;52.522;13.446;2023-04-12T14:01:38;17.20;60.70
11991;DHT22;6055;52.522;13.446;2023-04-12T14:04:04;17.10;60.90
11991;DHT22;6055;52.522;13.446;2023-04-12T14:06:30;16.90;61.00
11991;DHT22;6055;52.522;13.446;2023-04-12T14:08:56;16.70;61.80
11991;DHT22;6055;52.522;13.446;2023-04-12T14:11:22;16.60;62.00
11991;DHT22;6055;52.522;13.446;2023-04-12T14:13:49;16.40;62.50
11991;DHT22;6055;52.522;13.446;2023-04-12T14:16:15;16.10;62.70
11991;DHT22;6055;52.522;13.446;2023-04-12T14:18:40;15.90;63.80
11991;DHT22;6055;52.522;13.446;2023-04-12T14:21:07;15.70;64.50
11991;DHT22;6055;52.522;13.446;2023-04-12T14:23:33;15.60;64.10
11991;DHT22;6055;52.522;13.446;2023-04-12T14:25:58;15.50;65.30
11991;DHT22;6055;52.522;13.446;2023-04-12T14:28:24;15.50;65.20
11991;DHT22;6055;52.522;13.446;2023-04-12T14:30:55;15.40;65.20
11991;DHT22;6055;52.522;13.446;2023-04-12T14:33:20;15.40;65.80
11991;DHT22;6055;52.522;13.446;2023-04-12T14:35:46;15.30;65.90
11991;DHT22;6055;52.522;13.446;2023-04-12T14:38:11;15.20;66.00
11991;DHT22;6055;52.522;13.446;2023-04-12T14:40:37;15.20;67.00
11991;DHT22;6055;52.522;13.446;2023-04-12T14:43:02;15.20;67.20
11991;DHT22;6055;52.522;13.446;2023-04-12T14:45:28;15.10;67.70
11991;DHT22;6055;52.522;13.446;2023-04-12T14:47:53;14.90;68.00
11991;DHT22;6055;52.522;13.446;2023-04-12T14:50:19;14.90;68.50
11991;DHT22;6055;52.522;13.446;2023-04-12T14:52:46;14.80;69.10
11991;DHT22;6055;52.522;13.446;2023-04-12T14:55:11;14.80;70.10
11991;DHT22;6055;52.522;13.446;2023-04-12T14:57:38;14.80;69.40
11991;DHT22;6055;52.522;13.446;2023-04-12T15:00:05;14.70;68.50
11991;DHT22;6055;52.522;13.446;2023-04-12T15:02:37;14.60;68.60
11991;DHT22;6055;52.522;13.446;2023-04-12T15:05:02;14.50;68.40
11991;DHT22;6055;52.522;13.446;2023-04-12T15:07:31;14.50;68.50
11991;DHT22;6055;52.522;13.446;2023-04-12T15:09:57;14.50;68.30
11991;DHT22;6055;52.522;13.446;2023-04-12T15:12:22;14.50;68.60
11991;DHT22;6055;52.522;13.446;2023-04-12T15:14:48;14.50;68.40
11991;DHT22;6055;52.522;13.446;2023-04-12T15:17:14;14.40;69.60
11991;DHT22;6055;52.522;13.446;2023-04-12T15:19:39;14.40;72.00
11991;DHT22;6055;52.522;13.446;2023-04-12T15:22:05;14.30;73.40
11991;DHT22;6055;52.522;13.446;2023-04-12T15:24:30;14.20;73.90
11991;DHT22;6055;52.522;13.446;2023-04-12T15:26:56;14.00;75.70
11991;DHT22;6055;52.522;13.446;2023-04-12T15:29:21;13.80;76.80
11991;DHT22;6055;52.522;13.446;2023-04-12T15:31:48;13.70;79.60
11991;DHT22;6055;52.522;13.446;2023-04-12T15:34:14;13.60;83.80
11991;DHT22;6055;52.522;13.446;2023-04-12T15:36:39;13.40;86.20
11991;DHT22;6055;52.522;13.446;2023-04-12T15:39:07;13.20;89.70
11991;DHT22;6055;52.522;13.446;2023-04-12T15:41:33;13.00;91.30
11991;DHT22;6055;52.522;13.446;2023-04-12T15:44:05;12.90;91.60
11991;DHT22;6055;52.522;13.446;2023-04-12T15:46:31;12.90;93.80
11991;DHT22;6055;52.522;13.446;2023-04-12T15:48:57;12.80;94.40
11991;DHT22;6055;52.522;13.446;2023-04-12T15:51:22;12.90;95.30
11991;DHT22;6055;52.522;13.446;2023-04-12T15:53:48;12.80;95.90
11991;DHT22;6055;52.522;13.446;2023-04-12T15:56:14;12.80;97.20
11991;DHT22;6055;52.522;13.446;2023-04-12T15:58:44;12.90;97.00